Pecos, TX

4:09 AM CST on December 16, 2017 (GMT -0600)
Pecos Municipal

Weather History for KPEQ - May, 2014

Change the Weather History Date:

Sunday, May 4, 2014

  Actual Average Record
Temperature  
Mean Temperature 72 °F -  
Max Temperature 97 °F 86 °F 105 °F (1947)
Min Temperature 46 °F 51 °F 31 °F (2013)
Cooling Degree Days 6    
Growing Degree Days 22 (Base 50)    
Moisture  
Dew Point 23 °F    
Average Humidity 18    
Maximum Humidity 42    
Minimum Humidity 7    
Precipitation  
Precipitation 0.00 in - - ()
Sea Level Pressure  
Sea Level Pressure 29.97 in    
Wind  
Wind Speed 5 mph (West)    
Max Wind Speed 16 mph    
Max Gust Speed 21 mph    
Visibility 10 miles    
Events      
Averages and records for this station are not official NWS values.
T = Trace of Precipitation, MM = Missing Value Source: NWS Daily Summary

Daily Weather History Graph

Daily Weather History Graph

Search for Another Location

Airport or City:

Trip Planner

Search our weather history database for the weather conditions in past years. The results will help you decide how hot, cold, wet, or windy it might be!

Date:

Astronomy

May. 04, 2014 Rise Set
Actual Time 7:06 AM CDT 8:35 PM CDT
Civil Twilight 6:40 AM CDT 9:01 PM CDT
Nautical Twilight 6:09 AM CDT 9:32 PM CDT
Astronomical Twilight 5:36 AM CDT 10:05 PM CDT
Moon 11:33 AM CDT (5/4) 12:40 AM CDT (5/4)
Length of Visible Light 14h 21m
Length of Day
13h 29m
Waxing Crescent, 28% of the Moon is Illuminated
May 4
Waxing Crescent
May 6
First Quarter
May 14
Full
May 21
Last Quarter
May 28
New

Hourly Weather History & Observations

Time (CDT) Temp. Windchill Dew Point Humidity Pressure Visibility Wind Dir Wind Speed Gust Speed Precip Events Conditions
12:15 AM 64.8 °F - 20.7 °F 19% 30.02 in 10.0 mi SW 6.9 mph - N/A   Clear
12:35 AM 61.2 °F - 21.4 °F 22% 30.02 in 10.0 mi SSE 6.9 mph - N/A   Clear
12:55 AM 60.6 °F - 20.8 °F 22% 30.03 in 10.0 mi Calm Calm - N/A   Clear
1:15 AM 58.8 °F - 22.1 °F 24% 30.02 in 10.0 mi WSW 4.6 mph - N/A   Clear
1:35 AM 57.2 °F - 21.0 °F 25% 30.02 in 10.0 mi SW 6.9 mph - N/A   Clear
1:55 AM 57.7 °F - 19.4 °F 23% 30.02 in 10.0 mi SW 5.8 mph - N/A   Clear
2:15 AM 54.7 °F - 20.5 °F 26% 30.02 in 10.0 mi Calm Calm - N/A   Clear
2:35 AM 56.5 °F - 19.8 °F 24% 30.02 in 10.0 mi Calm Calm - N/A   Clear
2:55 AM 52.0 °F - 21.6 °F 30% 30.01 in 10.0 mi West 8.1 mph - N/A   Clear
3:15 AM 53.8 °F - 19.9 °F 27% 30.00 in 10.0 mi West 5.8 mph - N/A   Clear
3:35 AM 52.2 °F - 19.6 °F 28% 30.00 in 10.0 mi West 6.9 mph - N/A   Clear
3:55 AM 50.9 °F - 19.4 °F 29% 30.00 in 10.0 mi West 9.2 mph - N/A   Clear
4:15 AM 51.1 °F - 20.3 °F 30% 30.00 in 10.0 mi NW 3.5 mph - N/A   Clear
4:35 AM 52.2 °F - 21.7 °F 30% 30.00 in 10.0 mi Calm Calm - N/A   Clear
4:55 AM 49.5 °F - 21.9 °F 34% 30.01 in 10.0 mi Calm Calm - N/A   Clear
5:15 AM 51.3 °F - 23.0 °F 33% 30.01 in 10.0 mi Calm Calm - N/A   Clear
5:35 AM 51.1 °F - 22.8 °F 33% 30.02 in 10.0 mi Calm Calm - N/A   Clear
5:55 AM 50.4 °F - 22.6 °F 34% 30.02 in 10.0 mi Calm Calm - N/A   Clear
6:15 AM 48.2 °F - 21.7 °F 35% 30.02 in 10.0 mi NNW 3.5 mph - N/A   Clear
6:35 AM 46.4 °F 43.5 °F 22.1 °F 38% 30.02 in 10.0 mi NNW 5.8 mph - N/A   Clear
6:55 AM 47.8 °F - 23.2 °F 38% 30.03 in 10.0 mi NW 4.6 mph - N/A   Clear
7:15 AM 48.6 °F - 22.8 °F 36% 30.03 in 10.0 mi Calm Calm - N/A   Clear
7:35 AM 46.0 °F - 24.1 °F 42% 30.04 in 10.0 mi Calm Calm - N/A   Clear
7:55 AM 49.3 °F - 25.2 °F 39% 30.05 in 10.0 mi Calm Calm - N/A   Clear
8:15 AM 54.3 °F - 23.5 °F 30% 30.05 in 10.0 mi Calm Calm - N/A   Clear
8:35 AM 57.0 °F - 24.8 °F 29% 30.05 in 10.0 mi Calm Calm - N/A   Clear
8:55 AM 59.5 °F - 25.2 °F 27% 30.05 in 10.0 mi Calm Calm - N/A   Clear
9:15 AM 63.5 °F - 25.3 °F 23% 30.05 in 10.0 mi ENE 3.5 mph - N/A   Clear
9:35 AM 65.5 °F - 25.3 °F 22% 30.05 in 10.0 mi Calm Calm - N/A   Clear
9:55 AM 68.9 °F - 25.7 °F 20% 30.05 in 10.0 mi Calm Calm - N/A   Clear
10:15 AM 72.1 °F - 24.4 °F 17% 30.05 in 10.0 mi NE 3.5 mph - N/A   Clear
10:35 AM 74.1 °F - 23.9 °F 15% 30.05 in 10.0 mi North 3.5 mph - N/A   Clear
10:55 AM 76.5 °F - 24.8 °F 15% 30.05 in 10.0 mi Calm Calm - N/A   Clear
11:15 AM 78.8 °F - 26.2 °F 14% 30.04 in 10.0 mi North 3.5 mph - N/A   Clear
11:35 AM 82.2 °F - 27.0 °F 13% 30.04 in 10.0 mi Calm Calm - N/A   Clear
11:55 AM 84.7 °F - 26.6 °F 12% 30.03 in 10.0 mi ESE 4.6 mph - N/A   Clear
12:15 PM 87.1 °F - 27.0 °F 11% 30.02 in 10.0 mi Calm Calm - N/A   Clear
12:35 PM 88.3 °F - 26.4 °F 11% 30.01 in 10.0 mi SSE 4.6 mph - N/A   Clear
12:55 PM 89.6 °F - 26.4 °F 10% 30.00 in 10.0 mi Calm Calm - N/A   Clear
1:15 PM 91.0 °F - 26.2 °F 10% 29.99 in 10.0 mi SSW 6.9 mph - N/A   Clear
1:35 PM 92.7 °F - 27.1 °F 10% 29.98 in 10.0 mi South 3.5 mph - N/A   Clear
1:55 PM 93.4 °F - 27.0 °F 9% 29.97 in 10.0 mi SSE 5.8 mph - N/A   Clear
2:15 PM 93.9 °F - 25.0 °F 8% 29.96 in 10.0 mi Calm Calm - N/A   Clear
2:35 PM 95.0 °F - 26.1 °F 9% 29.95 in 10.0 mi SSW 8.1 mph - N/A   Clear
2:55 PM 95.0 °F - 26.2 °F 9% 29.95 in 10.0 mi West 8.1 mph - N/A   Clear
3:15 PM 96.3 °F - 25.9 °F 8% 29.94 in 10.0 mi West 12.7 mph - N/A   Clear
3:35 PM 95.7 °F - 25.9 °F 8% 29.93 in 10.0 mi WSW 6.9 mph - N/A   Clear
3:55 PM 95.4 °F - 25.2 °F 8% 29.92 in 10.0 mi West 11.5 mph 16.1 mph N/A   Clear
4:15 PM 97.2 °F - 26.4 °F 8% 29.91 in 10.0 mi WSW 16.1 mph 20.7 mph N/A   Clear
4:35 PM 97.7 °F - 26.4 °F 8% 29.90 in 10.0 mi West 12.7 mph 19.6 mph N/A   Clear
4:55 PM 95.7 °F - 25.0 °F 8% 29.89 in 10.0 mi West 9.2 mph - N/A   Clear
5:15 PM 96.8 °F - 25.9 °F 8% 29.88 in 10.0 mi SW 9.2 mph - N/A   Clear
5:35 PM 97.2 °F - 25.7 °F 8% 29.88 in 10.0 mi WSW 13.8 mph 17.3 mph N/A   Clear
5:55 PM 96.4 °F - 25.0 °F 8% 29.88 in 10.0 mi WNW 15.0 mph - N/A   Clear
6:15 PM 96.1 °F - 23.0 °F 7% 29.88 in 10.0 mi West 11.5 mph - N/A   Clear
6:35 PM 95.9 °F - 23.0 °F 7% 29.88 in 10.0 mi West 8.1 mph - N/A   Clear
6:55 PM 95.0 °F - 23.0 °F 8% 29.86 in 10.0 mi WSW 6.9 mph - N/A   Clear
7:15 PM 94.6 °F - 22.8 °F 8% 29.86 in 10.0 mi West 5.8 mph - N/A   Clear
7:35 PM 93.7 °F - 23.9 °F 8% 29.86 in 10.0 mi West 4.6 mph - N/A   Clear
7:55 PM 91.8 °F - 23.2 °F 8% 29.86 in 10.0 mi West 8.1 mph - N/A   Clear
8:15 PM 88.3 °F - 22.1 °F 9% 29.88 in 10.0 mi West 6.9 mph - N/A   Clear
8:35 PM 82.9 °F - 21.4 °F 10% 29.88 in 10.0 mi West 8.1 mph - N/A   Clear
8:55 PM 80.6 °F - 19.8 °F 10% 29.88 in 10.0 mi West 8.1 mph - N/A   Clear
9:15 PM 77.4 °F - 20.1 °F 12% 29.89 in 10.0 mi West 5.8 mph - N/A   Clear
9:35 PM 75.2 °F - 20.5 °F 13% 29.89 in 10.0 mi West 5.8 mph - N/A   Clear
9:55 PM 72.3 °F - 21.0 °F 14% 29.90 in 10.0 mi West 6.9 mph - N/A   Clear
10:15 PM 68.7 °F - 20.1 °F 16% 29.90 in 10.0 mi West 5.8 mph - N/A   Clear
10:35 PM 66.2 °F - 19.0 °F 16% 29.91 in 10.0 mi West 8.1 mph - N/A   Clear
10:55 PM 68.0 °F - 18.1 °F 15% 29.91 in 10.0 mi West 9.2 mph - N/A   Clear
11:15 PM 66.2 °F - 18.5 °F 16% 29.91 in 10.0 mi West 8.1 mph - N/A   Clear
11:35 PM 63.0 °F - 18.1 °F 18% 29.92 in 10.0 mi West 4.6 mph - N/A   Clear
11:55 PM 62.8 °F - 18.5 °F 18% 29.93 in 10.0 mi East 16.1 mph - N/A   Clear